SID1433 SBCT-SBGL
Flight info
| Callsign | SID1433 |
|---|---|
| Flight time | 1h 2m |
| Altitude | 37000 |
| Route | EDVEB UM548 KOXAG UM540 ANISE DCT DORLU UZ42 VUREP |
| Aircraft | B738/M-SDE2E3FGHIRWXY/LB1 |
Departure
| Time | 2026-05-09 03:42 |
|---|---|
| Airport | Curitiba-Afonso Pena International Airport (SBCT) |
Arrival
| Time | 2026-05-09 04:44 |
|---|---|
| Airport | Rio Galeão – Tom Jobim International Airport (SBGL) |
| Time | Latitude | Longitude | Altitude | Speed | Heading |
|---|---|---|---|---|---|
| 2026-05-09 03:10 | -25.52995 | -49.17991 | 2995 ft | 0 kts | 313° |
| 2026-05-09 03:33 | -25.53001 | -49.17983 | 2995 ft | 3 kts | 335° |
| 2026-05-09 03:33 | -25.53019 | -49.17985 | 2995 ft | 0 kts | 76° |
| 2026-05-09 03:33 | -25.53020 | -49.17986 | 2995 ft | 0 kts | 83° |
| 2026-05-09 03:35 | -25.53020 | -49.17984 | 2995 ft | 1 kts | 82° |
| 2026-05-09 03:35 | -25.53019 | -49.17963 | 2995 ft | 3 kts | 97° |
| 2026-05-09 03:35 | -25.53008 | -49.17933 | 2995 ft | 7 kts | 52° |
| 2026-05-09 03:35 | -25.52996 | -49.17913 | 2995 ft | 0 kts | 51° |
| 2026-05-09 03:36 | -25.52995 | -49.17912 | 2995 ft | 0 kts | 50° |
| 2026-05-09 03:37 | -25.52995 | -49.17911 | 2995 ft | 1 kts | 50° |
| 2026-05-09 03:37 | -25.52977 | -49.17887 | 2994 ft | 7 kts | 64° |
| 2026-05-09 03:37 | -25.52977 | -49.17821 | 2994 ft | 9 kts | 91° |
| 2026-05-09 03:37 | -25.52978 | -49.17744 | 2994 ft | 10 kts | 91° |
| 2026-05-09 03:38 | -25.52984 | -49.17661 | 2995 ft | 11 kts | 109° |
| 2026-05-09 03:38 | -25.53035 | -49.17594 | 2995 ft | 12 kts | 136° |
| 2026-05-09 03:38 | -25.53094 | -49.17526 | 2995 ft | 13 kts | 134° |
| 2026-05-09 03:38 | -25.53157 | -49.17453 | 2995 ft | 14 kts | 134° |
| 2026-05-09 03:39 | -25.53228 | -49.17377 | 2995 ft | 15 kts | 140° |
| 2026-05-09 03:39 | -25.53302 | -49.17297 | 2995 ft | 15 kts | 134° |
| 2026-05-09 03:39 | -25.53374 | -49.17206 | 2995 ft | 16 kts | 136° |
| 2026-05-09 03:39 | -25.53457 | -49.17118 | 2995 ft | 17 kts | 136° |
| 2026-05-09 03:40 | -25.53542 | -49.17023 | 2995 ft | 18 kts | 134° |
| 2026-05-09 03:40 | -25.53610 | -49.16916 | 2994 ft | 13 kts | 101° |
| 2026-05-09 03:40 | -25.53611 | -49.16839 | 2994 ft | 11 kts | 90° |
| 2026-05-09 03:40 | -25.53611 | -49.16777 | 2994 ft | 2 kts | 84° |
| 2026-05-09 03:41 | -25.53602 | -49.16764 | 2994 ft | 2 kts | 43° |
| 2026-05-09 03:41 | -25.53593 | -49.16760 | 2994 ft | 2 kts | 14° |
| 2026-05-09 03:41 | -25.53575 | -49.16767 | 2993 ft | 5 kts | 325° |
| 2026-05-09 03:41 | -25.53506 | -49.16841 | 2993 ft | 43 kts | 314° |
| 2026-05-09 03:42 | -25.53098 | -49.17302 | 2995 ft | 122 kts | 314° |
| 2026-05-09 03:42 | -25.52353 | -49.18151 | 3133 ft | 174 kts | 314° |
| 2026-05-09 03:42 | -25.51550 | -49.19088 | 4115 ft | 164 kts | 313° |
| 2026-05-09 03:42 | -25.50858 | -49.20168 | 4737 ft | 185 kts | 296° |
| 2026-05-09 03:43 | -25.50323 | -49.21532 | 5402 ft | 199 kts | 292° |
| 2026-05-09 03:43 | -25.49685 | -49.22982 | 5808 ft | 217 kts | 297° |
| 2026-05-09 03:43 | -25.48968 | -49.24478 | 6515 ft | 219 kts | 301° |
| 2026-05-09 03:43 | -25.48220 | -49.25974 | 7195 ft | 224 kts | 302° |
| 2026-05-09 03:44 | -25.47314 | -49.27332 | 7947 ft | 223 kts | 323° |
| 2026-05-09 03:44 | -25.45898 | -49.28032 | 8914 ft | 224 kts | 346° |
| 2026-05-09 03:44 | -25.44327 | -49.28092 | 9607 ft | 232 kts | 5° |
| 2026-05-09 03:44 | -25.42788 | -49.27481 | 9985 ft | 242 kts | 17° |
| 2026-05-09 03:45 | -25.41277 | -49.26657 | 10059 ft | 243 kts | 19° |
| 2026-05-09 03:45 | -25.39757 | -49.25795 | 10010 ft | 247 kts | 19° |
| 2026-05-09 03:45 | -25.38249 | -49.24949 | 10003 ft | 244 kts | 19° |
| 2026-05-09 03:45 | -25.36741 | -49.24112 | 9998 ft | 242 kts | 19° |
| 2026-05-09 03:46 | -25.35214 | -49.23268 | 10069 ft | 253 kts | 20° |
| 2026-05-09 03:46 | -25.33764 | -49.21918 | 10255 ft | 299 kts | 47° |
| 2026-05-09 03:46 | -25.32925 | -49.19642 | 10467 ft | 345 kts | 75° |
| 2026-05-09 03:46 | -25.32792 | -49.16866 | 10683 ft | 377 kts | 85° |
| 2026-05-09 03:47 | -25.32845 | -49.13877 | 10927 ft | 399 kts | 87° |
| 2026-05-09 03:47 | -25.32937 | -49.10762 | 11435 ft | 409 kts | 87° |
| 2026-05-09 03:47 | -25.33012 | -49.07601 | 12110 ft | 414 kts | 87° |
| 2026-05-09 03:47 | -25.33059 | -49.04411 | 12833 ft | 417 kts | 86° |
| 2026-05-09 03:48 | -25.33079 | -49.01192 | 13521 ft | 421 kts | 86° |
| 2026-05-09 03:48 | -25.33082 | -48.97942 | 14188 ft | 425 kts | 85° |
| 2026-05-09 03:48 | -25.33077 | -48.95763 | 14597 ft | 428 kts | 85° |
| 2026-05-09 03:48 | -25.33067 | -48.92455 | 15191 ft | 433 kts | 85° |
| 2026-05-09 03:49 | -25.33058 | -48.89102 | 15794 ft | 437 kts | 85° |
| 2026-05-09 03:49 | -25.33046 | -48.84633 | 16599 ft | 442 kts | 85° |
| 2026-05-09 03:49 | -25.33041 | -48.82330 | 16956 ft | 444 kts | 85° |
| 2026-05-09 03:49 | -25.33030 | -48.78904 | 17479 ft | 448 kts | 86° |
| 2026-05-09 03:50 | -25.33017 | -48.75443 | 17977 ft | 452 kts | 86° |
| 2026-05-09 03:50 | -25.33003 | -48.71902 | 18478 ft | 457 kts | 86° |
| 2026-05-09 03:50 | -25.32989 | -48.68380 | 18986 ft | 460 kts | 86° |
| 2026-05-09 03:50 | -25.32974 | -48.64882 | 19516 ft | 462 kts | 86° |
| 2026-05-09 03:51 | -25.32958 | -48.61276 | 20012 ft | 464 kts | 86° |
| 2026-05-09 03:51 | -25.32941 | -48.57695 | 20474 ft | 467 kts | 86° |
| 2026-05-09 03:51 | -25.32923 | -48.54090 | 20935 ft | 470 kts | 86° |
| 2026-05-09 03:51 | -25.32904 | -48.50513 | 21356 ft | 473 kts | 86° |
| 2026-05-09 03:52 | -25.32882 | -48.46865 | 21758 ft | 476 kts | 86° |
| 2026-05-09 03:52 | -25.32858 | -48.43189 | 22189 ft | 478 kts | 86° |
| 2026-05-09 03:52 | -25.32834 | -48.39500 | 22595 ft | 481 kts | 86° |
| 2026-05-09 03:52 | -25.32809 | -48.35791 | 22956 ft | 484 kts | 86° |
| 2026-05-09 03:53 | -25.32782 | -48.32064 | 23292 ft | 487 kts | 86° |
| 2026-05-09 03:53 | -25.32755 | -48.28306 | 23648 ft | 489 kts | 86° |
| 2026-05-09 03:53 | -25.32727 | -48.24540 | 24023 ft | 491 kts | 87° |
| 2026-05-09 03:53 | -25.32699 | -48.20763 | 24351 ft | 493 kts | 86° |
| 2026-05-09 03:54 | -25.32668 | -48.16959 | 24635 ft | 496 kts | 86° |
| 2026-05-09 03:54 | -25.32636 | -48.13137 | 24911 ft | 499 kts | 86° |
| 2026-05-09 03:54 | -25.32602 | -48.09291 | 25196 ft | 502 kts | 86° |
| 2026-05-09 03:54 | -25.32568 | -48.05424 | 25494 ft | 504 kts | 86° |
| 2026-05-09 03:55 | -25.32533 | -48.01540 | 25774 ft | 506 kts | 86° |
| 2026-05-09 03:55 | -25.32476 | -47.97649 | 26017 ft | 508 kts | 84° |
| 2026-05-09 03:55 | -25.32007 | -47.93788 | 26272 ft | 506 kts | 75° |
| 2026-05-09 03:55 | -25.31254 | -47.90044 | 26549 ft | 506 kts | 73° |
| 2026-05-09 03:56 | -25.30474 | -47.86237 | 26808 ft | 509 kts | 74° |
| 2026-05-09 03:56 | -25.29741 | -47.82391 | 27027 ft | 512 kts | 75° |
| 2026-05-09 03:56 | -25.29044 | -47.78510 | 27259 ft | 515 kts | 75° |
| 2026-05-09 03:56 | -25.28363 | -47.74619 | 27490 ft | 517 kts | 76° |
| 2026-05-09 03:57 | -25.27677 | -47.70710 | 27710 ft | 519 kts | 75° |
| 2026-05-09 03:57 | -25.26978 | -47.66788 | 27920 ft | 521 kts | 75° |
| 2026-05-09 03:57 | -25.26265 | -47.62841 | 28146 ft | 523 kts | 75° |
| 2026-05-09 03:57 | -25.25538 | -47.58905 | 28377 ft | 523 kts | 75° |
| 2026-05-09 03:58 | -25.24802 | -47.54969 | 28644 ft | 523 kts | 75° |
| 2026-05-09 03:58 | -25.24076 | -47.51084 | 28955 ft | 522 kts | 75° |
| 2026-05-09 03:58 | -25.23344 | -47.47155 | 29270 ft | 522 kts | 75° |
| 2026-05-09 03:58 | -25.22616 | -47.43228 | 29579 ft | 522 kts | 75° |
| 2026-05-09 03:59 | -25.21897 | -47.39299 | 29874 ft | 522 kts | 75° |
| 2026-05-09 03:59 | -25.21182 | -47.35369 | 30171 ft | 522 kts | 75° |
| 2026-05-09 03:59 | -25.20467 | -47.31440 | 30488 ft | 522 kts | 75° |
| 2026-05-09 03:59 | -25.19752 | -47.27522 | 30843 ft | 520 kts | 75° |
| 2026-05-09 04:00 | -25.19036 | -47.23601 | 31211 ft | 518 kts | 75° |
| 2026-05-09 04:00 | -25.18324 | -47.19715 | 31603 ft | 516 kts | 75° |
| 2026-05-09 04:00 | -25.17611 | -47.15832 | 31977 ft | 515 kts | 75° |
| 2026-05-09 04:00 | -25.16898 | -47.11962 | 32309 ft | 514 kts | 75° |
| 2026-05-09 04:01 | -25.16185 | -47.08094 | 32644 ft | 513 kts | 75° |
| 2026-05-09 04:01 | -25.15466 | -47.04246 | 33011 ft | 511 kts | 73° |
| 2026-05-09 04:01 | -25.14293 | -47.00588 | 33312 ft | 501 kts | 57° |
| 2026-05-09 04:01 | -25.12364 | -46.97437 | 33624 ft | 491 kts | 44° |
| 2026-05-09 04:02 | -25.09917 | -46.94879 | 33942 ft | 481 kts | 31° |
| 2026-05-09 04:02 | -25.07156 | -46.92965 | 34242 ft | 475 kts | 25° |
| 2026-05-09 04:02 | -25.04244 | -46.91118 | 34506 ft | 475 kts | 24° |
| 2026-05-09 04:02 | -25.01367 | -46.89310 | 34753 ft | 476 kts | 24° |
| 2026-05-09 04:03 | -24.98498 | -46.87489 | 35031 ft | 476 kts | 24° |
| 2026-05-09 04:03 | -24.95636 | -46.85650 | 35295 ft | 476 kts | 25° |
| 2026-05-09 04:03 | -24.92780 | -46.83795 | 35538 ft | 476 kts | 25° |
| 2026-05-09 04:03 | -24.89967 | -46.81956 | 35779 ft | 477 kts | 25° |
| 2026-05-09 04:04 | -24.87074 | -46.80059 | 35983 ft | 478 kts | 25° |
| 2026-05-09 04:04 | -24.84214 | -46.78183 | 36202 ft | 478 kts | 25° |
| 2026-05-09 04:04 | -24.81353 | -46.76307 | 36462 ft | 478 kts | 24° |
| 2026-05-09 04:04 | -24.78532 | -46.74461 | 36662 ft | 478 kts | 25° |
| 2026-05-09 04:05 | -24.75664 | -46.72587 | 36890 ft | 479 kts | 24° |
| 2026-05-09 04:05 | -24.72796 | -46.70715 | 37058 ft | 479 kts | 24° |
| 2026-05-09 04:05 | -24.67073 | -46.66980 | 37038 ft | 476 kts | 24° |
| 2026-05-09 04:06 | -24.61428 | -46.63282 | 37041 ft | 470 kts | 26° |
| 2026-05-09 04:06 | -24.56327 | -46.58645 | 37052 ft | 480 kts | 38° |
| 2026-05-09 04:07 | -24.51545 | -46.53493 | 37051 ft | 482 kts | 39° |
| 2026-05-09 04:07 | -24.46752 | -46.48334 | 37038 ft | 482 kts | 38° |
| 2026-05-09 04:08 | -24.41925 | -46.43214 | 37051 ft | 483 kts | 38° |
| 2026-05-09 04:08 | -24.37064 | -46.38093 | 37052 ft | 485 kts | 38° |
| 2026-05-09 04:09 | -24.32190 | -46.32971 | 37044 ft | 486 kts | 38° |
| 2026-05-09 04:09 | -24.27321 | -46.27857 | 37049 ft | 488 kts | 38° |
| 2026-05-09 04:10 | -24.22416 | -46.22710 | 37042 ft | 488 kts | 38° |
| 2026-05-09 04:10 | -24.17501 | -46.17555 | 37044 ft | 489 kts | 38° |
| 2026-05-09 04:11 | -24.12577 | -46.12402 | 37045 ft | 489 kts | 38° |
| 2026-05-09 04:11 | -24.07647 | -46.07245 | 37048 ft | 489 kts | 38° |
| 2026-05-09 04:12 | -24.02719 | -46.02096 | 37045 ft | 489 kts | 38° |
| 2026-05-09 04:12 | -23.97820 | -45.96982 | 37043 ft | 489 kts | 38° |
| 2026-05-09 04:13 | -23.92895 | -45.91848 | 37049 ft | 489 kts | 38° |
| 2026-05-09 04:13 | -23.87970 | -45.86717 | 37049 ft | 489 kts | 38° |
| 2026-05-09 04:14 | -23.83039 | -45.81590 | 37036 ft | 489 kts | 38° |
| 2026-05-09 04:14 | -23.78100 | -45.76462 | 37035 ft | 489 kts | 38° |
| 2026-05-09 04:15 | -23.73171 | -45.71344 | 37039 ft | 489 kts | 38° |
| 2026-05-09 04:15 | -23.68240 | -45.66229 | 37032 ft | 489 kts | 38° |
| 2026-05-09 04:16 | -23.63314 | -45.61128 | 37036 ft | 488 kts | 38° |
| 2026-05-09 04:16 | -23.58381 | -45.56026 | 37042 ft | 488 kts | 38° |
| 2026-05-09 04:17 | -23.53455 | -45.50938 | 37041 ft | 488 kts | 38° |
| 2026-05-09 04:17 | -23.48526 | -45.45848 | 37040 ft | 488 kts | 38° |
| 2026-05-09 04:18 | -23.43597 | -45.40764 | 37017 ft | 487 kts | 38° |
| 2026-05-09 04:18 | -23.38671 | -45.35685 | 37017 ft | 488 kts | 39° |
| 2026-05-09 04:19 | -23.36436 | -45.32885 | 37008 ft | 494 kts | 51° |
| 2026-05-09 04:19 | -23.34662 | -45.29666 | 37026 ft | 498 kts | 61° |
| 2026-05-09 04:19 | -23.33378 | -45.26156 | 37014 ft | 502 kts | 72° |
| 2026-05-09 04:19 | -23.32542 | -45.22463 | 37035 ft | 503 kts | 75° |
| 2026-05-09 04:20 | -23.31046 | -45.15040 | 37010 ft | 502 kts | 76° |
| 2026-05-09 04:20 | -23.29523 | -45.07621 | 37018 ft | 502 kts | 75° |
| 2026-05-09 04:21 | -23.27937 | -45.00235 | 37019 ft | 501 kts | 75° |
| 2026-05-09 04:22 | -23.25540 | -44.89231 | 37010 ft | 495 kts | 75° |
| 2026-05-09 04:22 | -23.24761 | -44.85651 | 36987 ft | 479 kts | 75° |
| 2026-05-09 04:22 | -23.24007 | -44.82186 | 36993 ft | 466 kts | 75° |
| 2026-05-09 04:23 | -23.22498 | -44.75289 | 36998 ft | 464 kts | 75° |
| 2026-05-09 04:23 | -23.21762 | -44.71924 | 36987 ft | 450 kts | 75° |
| 2026-05-09 04:23 | -23.21049 | -44.68657 | 36989 ft | 437 kts | 75° |
| 2026-05-09 04:23 | -23.20356 | -44.65483 | 36990 ft | 424 kts | 75° |
| 2026-05-09 04:24 | -23.19690 | -44.62445 | 36979 ft | 412 kts | 75° |
| 2026-05-09 04:24 | -23.18426 | -44.56455 | 37012 ft | 405 kts | 73° |
| 2026-05-09 04:24 | -23.17532 | -44.53559 | 36998 ft | 403 kts | 62° |
| 2026-05-09 04:25 | -23.16337 | -44.50786 | 37036 ft | 408 kts | 61° |
| 2026-05-09 04:25 | -23.13773 | -44.45138 | 37038 ft | 424 kts | 60° |
| 2026-05-09 04:26 | -23.11131 | -44.39281 | 36957 ft | 440 kts | 61° |
| 2026-05-09 04:26 | -23.08466 | -44.33285 | 36518 ft | 446 kts | 62° |
| 2026-05-09 04:26 | -23.07114 | -44.30232 | 35577 ft | 448 kts | 62° |
| 2026-05-09 04:27 | -23.05746 | -44.27146 | 34274 ft | 460 kts | 62° |
| 2026-05-09 04:27 | -23.04338 | -44.23970 | 32798 ft | 474 kts | 62° |
| 2026-05-09 04:27 | -23.02893 | -44.20707 | 31356 ft | 484 kts | 62° |
| 2026-05-09 04:27 | -23.01422 | -44.17387 | 29923 ft | 491 kts | 62° |
| 2026-05-09 04:28 | -22.99934 | -44.14030 | 28488 ft | 494 kts | 61° |
| 2026-05-09 04:28 | -22.98447 | -44.10676 | 27096 ft | 493 kts | 61° |
| 2026-05-09 04:28 | -22.97461 | -44.08453 | 26184 ft | 491 kts | 61° |
| 2026-05-09 04:28 | -22.95985 | -44.05131 | 24800 ft | 486 kts | 61° |
| 2026-05-09 04:29 | -22.94530 | -44.01857 | 23522 ft | 477 kts | 61° |
| 2026-05-09 04:29 | -22.93085 | -43.98609 | 22273 ft | 467 kts | 62° |
| 2026-05-09 04:29 | -22.91699 | -43.95508 | 21057 ft | 457 kts | 61° |
| 2026-05-09 04:29 | -22.90327 | -43.92427 | 19834 ft | 448 kts | 62° |
| 2026-05-09 04:30 | -22.88988 | -43.89422 | 18652 ft | 438 kts | 62° |
| 2026-05-09 04:30 | -22.87677 | -43.86478 | 17470 ft | 429 kts | 62° |
| 2026-05-09 04:30 | -22.86393 | -43.83600 | 16567 ft | 416 kts | 61° |
| 2026-05-09 04:30 | -22.85170 | -43.80862 | 16178 ft | 391 kts | 61° |
| 2026-05-09 04:31 | -22.84023 | -43.78291 | 15988 ft | 366 kts | 61° |
| 2026-05-09 04:31 | -22.82940 | -43.75866 | 15655 ft | 348 kts | 61° |
| 2026-05-09 04:31 | -22.81933 | -43.73615 | 15539 ft | 326 kts | 60° |
| 2026-05-09 04:31 | -22.80967 | -43.71417 | 15341 ft | 311 kts | 65° |
| 2026-05-09 04:32 | -22.80570 | -43.69196 | 15223 ft | 300 kts | 87° |
| 2026-05-09 04:32 | -22.80938 | -43.67022 | 15108 ft | 290 kts | 108° |
| 2026-05-09 04:32 | -22.81901 | -43.65137 | 14972 ft | 280 kts | 132° |
| 2026-05-09 04:32 | -22.83250 | -43.64148 | 14672 ft | 279 kts | 161° |
| 2026-05-09 04:33 | -22.84642 | -43.63916 | 14325 ft | 278 kts | 187° |
| 2026-05-09 04:33 | -22.86418 | -43.64605 | 13843 ft | 271 kts | 222° |
| 2026-05-09 04:33 | -22.87567 | -43.66180 | 13125 ft | 271 kts | 251° |
| 2026-05-09 04:33 | -22.87936 | -43.68174 | 12317 ft | 274 kts | 277° |
| 2026-05-09 04:34 | -22.87396 | -43.70152 | 11521 ft | 275 kts | 305° |
| 2026-05-09 04:34 | -22.86070 | -43.71597 | 10932 ft | 271 kts | 332° |
| 2026-05-09 04:34 | -22.84301 | -43.72180 | 10445 ft | 267 kts | 356° |
| 2026-05-09 04:34 | -22.82515 | -43.71824 | 10213 ft | 260 kts | 24° |
| 2026-05-09 04:35 | -22.81074 | -43.70635 | 10099 ft | 267 kts | 45° |
| 2026-05-09 04:35 | -22.80061 | -43.68897 | 9988 ft | 280 kts | 67° |
| 2026-05-09 04:35 | -22.79577 | -43.66841 | 9722 ft | 289 kts | 76° |
| 2026-05-09 04:35 | -22.79242 | -43.64700 | 9407 ft | 288 kts | 77° |
| 2026-05-09 04:36 | -22.78914 | -43.62559 | 9097 ft | 290 kts | 77° |
| 2026-05-09 04:36 | -22.78473 | -43.60419 | 8782 ft | 290 kts | 72° |
| 2026-05-09 04:36 | -22.77929 | -43.58320 | 8461 ft | 286 kts | 66° |
| 2026-05-09 04:36 | -22.76870 | -43.56559 | 8145 ft | 276 kts | 39° |
| 2026-05-09 04:37 | -22.75276 | -43.55541 | 7913 ft | 260 kts | 17° |
| 2026-05-09 04:37 | -22.73600 | -43.54968 | 7662 ft | 247 kts | 14° |
| 2026-05-09 04:37 | -22.71975 | -43.54402 | 7348 ft | 240 kts | 17° |
| 2026-05-09 04:37 | -22.70439 | -43.53770 | 7086 ft | 232 kts | 20° |
| 2026-05-09 04:38 | -22.69012 | -43.53062 | 6840 ft | 225 kts | 26° |
| 2026-05-09 04:38 | -22.67866 | -43.51922 | 6588 ft | 226 kts | 51° |
| 2026-05-09 04:38 | -22.67198 | -43.50370 | 6333 ft | 232 kts | 72° |
| 2026-05-09 04:38 | -22.67140 | -43.48627 | 6028 ft | 236 kts | 101° |
| 2026-05-09 04:39 | -22.67853 | -43.47043 | 5948 ft | 233 kts | 115° |
| 2026-05-09 04:39 | -22.68682 | -43.45548 | 5659 ft | 230 kts | 119° |
| 2026-05-09 04:39 | -22.69578 | -43.44117 | 5210 ft | 227 kts | 121° |
| 2026-05-09 04:39 | -22.70485 | -43.42731 | 4646 ft | 225 kts | 122° |
| 2026-05-09 04:40 | -22.71381 | -43.41362 | 4145 ft | 223 kts | 121° |
| 2026-05-09 04:40 | -22.72286 | -43.39992 | 3653 ft | 224 kts | 121° |
| 2026-05-09 04:40 | -22.73181 | -43.38633 | 3150 ft | 219 kts | 121° |
| 2026-05-09 04:40 | -22.74028 | -43.37336 | 2646 ft | 208 kts | 122° |
| 2026-05-09 04:41 | -22.74853 | -43.36089 | 2213 ft | 197 kts | 123° |
| 2026-05-09 04:41 | -22.75620 | -43.34924 | 1932 ft | 182 kts | 122° |
| 2026-05-09 04:41 | -22.76329 | -43.33854 | 1696 ft | 169 kts | 122° |
| 2026-05-09 04:41 | -22.76982 | -43.32850 | 1523 ft | 155 kts | 122° |
| 2026-05-09 04:42 | -22.77607 | -43.31899 | 1286 ft | 153 kts | 123° |
| 2026-05-09 04:42 | -22.78214 | -43.30978 | 1087 ft | 149 kts | 123° |
| 2026-05-09 04:42 | -22.78819 | -43.30056 | 887 ft | 150 kts | 123° |
| 2026-05-09 04:42 | -22.79425 | -43.29133 | 682 ft | 150 kts | 123° |
| 2026-05-09 04:43 | -22.80029 | -43.28216 | 485 ft | 150 kts | 123° |
| 2026-05-09 04:43 | -22.80635 | -43.27295 | 292 ft | 152 kts | 123° |
| 2026-05-09 04:43 | -22.81038 | -43.26677 | 190 ft | 150 kts | 124° |
| 2026-05-09 04:43 | -22.81340 | -43.26219 | 96 ft | 147 kts | 124° |
| 2026-05-09 04:44 | -22.81926 | -43.25334 | 27 ft | 133 kts | 124° |
| 2026-05-09 04:44 | -22.82327 | -43.24731 | 29 ft | 72 kts | 126° |
| 2026-05-09 04:44 | -22.82528 | -43.24428 | 27 ft | 41 kts | 126° |
| 2026-05-09 04:44 | -22.82688 | -43.24186 | 25 ft | 38 kts | 125° |
| 2026-05-09 04:45 | -22.82831 | -43.23971 | 30 ft | 27 kts | 124° |
| 2026-05-09 04:45 | -22.82870 | -43.23841 | 28 ft | 17 kts | 60° |
| 2026-05-09 04:45 | -22.82780 | -43.23787 | 29 ft | 14 kts | 341° |
| 2026-05-09 04:45 | -22.82724 | -43.23860 | 28 ft | 13 kts | 308° |
| 2026-05-09 04:46 | -22.82673 | -43.23936 | 26 ft | 12 kts | 305° |
| 2026-05-09 04:46 | -22.82624 | -43.24012 | 29 ft | 12 kts | 305° |
| 2026-05-09 04:46 | -22.82574 | -43.24086 | 25 ft | 12 kts | 306° |
| 2026-05-09 04:46 | -22.82525 | -43.24159 | 28 ft | 12 kts | 306° |
| 2026-05-09 04:47 | -22.82476 | -43.24232 | 30 ft | 12 kts | 304° |
| 2026-05-09 04:47 | -22.82429 | -43.24307 | 25 ft | 12 kts | 304° |
| 2026-05-09 04:47 | -22.82380 | -43.24378 | 28 ft | 12 kts | 307° |
| 2026-05-09 04:47 | -22.82332 | -43.24451 | 30 ft | 12 kts | 305° |
| 2026-05-09 04:48 | -22.82284 | -43.24524 | 26 ft | 12 kts | 305° |
| 2026-05-09 04:48 | -22.82235 | -43.24597 | 28 ft | 12 kts | 306° |
| 2026-05-09 04:48 | -22.82187 | -43.24670 | 26 ft | 12 kts | 306° |
| 2026-05-09 04:48 | -22.82131 | -43.24729 | 28 ft | 11 kts | 351° |
| 2026-05-09 04:49 | -22.82065 | -43.24698 | 30 ft | 11 kts | 32° |
| 2026-05-09 04:49 | -22.82005 | -43.24654 | 29 ft | 11 kts | 18° |
| 2026-05-09 04:49 | -22.81930 | -43.24701 | 27 ft | 17 kts | 306° |
| 2026-05-09 04:49 | -22.81857 | -43.24813 | 25 ft | 19 kts | 305° |
| 2026-05-09 04:50 | -22.81782 | -43.24927 | 26 ft | 18 kts | 305° |
| 2026-05-09 04:50 | -22.81711 | -43.25035 | 27 ft | 17 kts | 305° |
| 2026-05-09 04:50 | -22.81632 | -43.25126 | 29 ft | 16 kts | 341° |
| 2026-05-09 04:50 | -22.81548 | -43.25089 | 31 ft | 13 kts | 33° |
| 2026-05-09 04:51 | -22.81478 | -43.25113 | 25 ft | 11 kts | 316° |
| 2026-05-09 04:51 | -22.81413 | -43.25110 | 25 ft | 9 kts | 357° |
| 2026-05-09 04:51 | -22.81362 | -43.25144 | 29 ft | 9 kts | 316° |
| 2026-05-09 04:51 | -22.81324 | -43.25194 | 29 ft | 9 kts | 304° |
| 2026-05-09 04:52 | -22.81291 | -43.25249 | 30 ft | 9 kts | 304° |
| 2026-05-09 04:52 | -22.81251 | -43.25298 | 27 ft | 9 kts | 314° |
| 2026-05-09 04:52 | -22.81203 | -43.25329 | 25 ft | 8 kts | 2° |
| 2026-05-09 04:52 | -22.81169 | -43.25293 | 25 ft | 7 kts | 58° |
| 2026-05-09 04:53 | -22.81165 | -43.25286 | 25 ft | 0 kts | 58° |